sensor_id;sensor_type;location;lat;lon;timestamp;pressure;altitude;pressure_sealevel;temperature;humidity
43488;BME280;29078;41.932;25.554;2023-03-24T00:00:17;99793.50;;;9.27;61.63
43488;BME280;29078;41.932;25.554;2023-03-24T00:02:45;99748.97;;;8.83;61.71
43488;BME280;29078;41.932;25.554;2023-03-24T00:05:16;99698.41;;;8.55;61.56
43488;BME280;29078;41.932;25.554;2023-03-24T00:07:42;99795.84;;;8.79;62.13
43488;BME280;29078;41.932;25.554;2023-03-24T00:10:13;99791.59;;;8.86;62.15
43488;BME280;29078;41.932;25.554;2023-03-24T00:12:40;99725.38;;;8.57;62.04
43488;BME280;29078;41.932;25.554;2023-03-24T00:15:11;99778.91;;;8.90;62.26
43488;BME280;29078;41.932;25.554;2023-03-24T00:17:37;99785.72;;;8.93;61.96
43488;BME280;29078;41.932;25.554;2023-03-24T00:20:09;99778.47;;;8.95;61.75
43488;BME280;29078;41.932;25.554;2023-03-24T00:22:46;99777.16;;;8.99;61.65
43488;BME280;29078;41.932;25.554;2023-03-24T00:25:17;99780.78;;;9.06;61.53
43488;BME280;29078;41.932;25.554;2023-03-24T00:27:43;99763.44;;;8.87;61.45
43488;BME280;29078;41.932;25.554;2023-03-24T00:30:10;99748.47;;;8.79;61.31
43488;BME280;29078;41.932;25.554;2023-03-24T00:32:36;99772.88;;;8.98;61.26
43488;BME280;29078;41.932;25.554;2023-03-24T00:35:08;99744.16;;;8.70;61.07
43488;BME280;29078;41.932;25.554;2023-03-24T00:37:35;99770.19;;;8.89;61.50
43488;BME280;29078;41.932;25.554;2023-03-24T00:40:03;99773.38;;;8.93;61.00
43488;BME280;29078;41.932;25.554;2023-03-24T00:42:34;99706.28;;;8.47;61.00
43488;BME280;29078;41.932;25.554;2023-03-24T00:45:05;99746.78;;;8.70;61.13
43488;BME280;29078;41.932;25.554;2023-03-24T00:47:32;99764.28;;;8.87;61.11
43488;BME280;29078;41.932;25.554;2023-03-24T00:50:04;99622.56;;;8.00;60.82
43488;BME280;29078;41.932;25.554;2023-03-24T00:52:31;99769.19;;;8.82;60.85
43488;BME280;29078;41.932;25.554;2023-03-24T00:55:01;99765.91;;;8.80;60.85
43488;BME280;29078;41.932;25.554;2023-03-24T00:57:29;99698.63;;;8.27;60.91
43488;BME280;29078;41.932;25.554;2023-03-24T00:59:59;99720.56;;;8.44;60.99
43488;BME280;29078;41.932;25.554;2023-03-24T01:02:35;99727.66;;;8.44;60.84
43488;BME280;29078;41.932;25.554;2023-03-24T01:05:01;99679.13;;;8.12;60.73
43488;BME280;29078;41.932;25.554;2023-03-24T01:07:27;99768.69;;;8.71;60.54
43488;BME280;29078;41.932;25.554;2023-03-24T01:09:55;99701.16;;;8.37;60.64
43488;BME280;29078;41.932;25.554;2023-03-24T01:12:25;99698.97;;;8.33;60.36
43488;BME280;29078;41.932;25.554;2023-03-24T01:14:50;99693.78;;;8.15;60.37
43488;BME280;29078;41.932;25.554;2023-03-24T01:17:18;99747.72;;;8.53;60.70
43488;BME280;29078;41.932;25.554;2023-03-24T01:19:44;99760.41;;;8.57;60.63
43488;BME280;29078;41.932;25.554;2023-03-24T01:22:09;99766.31;;;8.51;60.96
43488;BME280;29078;41.932;25.554;2023-03-24T01:24:35;99781.75;;;8.46;60.93
43488;BME280;29078;41.932;25.554;2023-03-24T01:27:01;99745.22;;;8.35;60.69
43488;BME280;29078;41.932;25.554;2023-03-24T01:29:27;99700.81;;;8.06;60.91
43488;BME280;29078;41.932;25.554;2023-03-24T01:31:52;99750.63;;;8.34;61.18
43488;BME280;29078;41.932;25.554;2023-03-24T01:34:18;99659.91;;;7.70;60.64
43488;BME280;29078;41.932;25.554;2023-03-24T01:36:43;99747.84;;;8.35;60.86
43488;BME280;29078;41.932;25.554;2023-03-24T01:39:09;99664.41;;;7.85;60.67
43488;BME280;29078;41.932;25.554;2023-03-24T01:41:37;99744.72;;;8.40;60.74
43488;BME280;29078;41.932;25.554;2023-03-24T01:44:29;99749.00;;;8.41;60.25
43488;BME280;29078;41.932;25.554;2023-03-24T01:46:56;99747.03;;;8.43;60.32
43488;BME280;29078;41.932;25.554;2023-03-24T01:49:25;99745.75;;;8.47;60.63
43488;BME280;29078;41.932;25.554;2023-03-24T01:51:54;99745.59;;;8.48;60.14
43488;BME280;29078;41.932;25.554;2023-03-24T01:54:40;99697.38;;;8.14;60.53
43488;BME280;29078;41.932;25.554;2023-03-24T01:59:52;99656.31;;;7.79;60.78
43488;BME280;29078;41.932;25.554;2023-03-24T02:02:19;99714.66;;;8.16;60.44
43488;BME280;29078;41.932;25.554;2023-03-24T02:04:53;99738.16;;;8.44;60.24
43488;BME280;29078;41.932;25.554;2023-03-24T02:07:34;99751.50;;;8.50;59.89
43488;BME280;29078;41.932;25.554;2023-03-24T02:10:10;99740.13;;;8.42;60.04
43488;BME280;29078;41.932;25.554;2023-03-24T02:12:38;99701.88;;;8.21;60.41
43488;BME280;29078;41.932;25.554;2023-03-24T02:15:04;99738.84;;;8.54;60.02
43488;BME280;29078;41.932;25.554;2023-03-24T02:17:53;99744.13;;;8.54;59.72
43488;BME280;29078;41.932;25.554;2023-03-24T02:28:46;99741.78;;;8.43;60.44
43488;BME280;29078;41.932;25.554;2023-03-24T02:31:20;99743.91;;;8.39;60.35
43488;BME280;29078;41.932;25.554;2023-03-24T02:47:08;99689.28;;;7.65;60.38
43488;BME280;29078;41.932;25.554;2023-03-24T02:52:44;99737.97;;;8.11;60.54
43488;BME280;29078;41.932;25.554;2023-03-24T02:55:19;99775.25;;;8.33;60.29
43488;BME280;29078;41.932;25.554;2023-03-24T03:00:44;99781.97;;;8.27;59.97
43488;BME280;29078;41.932;25.554;2023-03-24T03:03:26;99737.91;;;7.95;60.24
43488;BME280;29078;41.932;25.554;2023-03-24T03:06:05;99788.84;;;8.20;60.42
43488;BME280;29078;41.932;25.554;2023-03-24T03:08:33;99752.50;;;7.89;60.46
43488;BME280;29078;41.932;25.554;2023-03-24T03:11:02;99797.72;;;8.19;60.42
43488;BME280;29078;41.932;25.554;2023-03-24T03:13:32;99717.25;;;7.74;60.02
43488;BME280;29078;41.932;25.554;2023-03-24T03:16:15;99759.91;;;7.94;60.15
43488;BME280;29078;41.932;25.554;2023-03-24T03:18:48;99801.91;;;8.12;60.05
43488;BME280;29078;41.932;25.554;2023-03-24T03:21:19;99751.16;;;7.85;60.06
43488;BME280;29078;41.932;25.554;2023-03-24T03:24:23;99789.84;;;8.01;60.35
43488;BME280;29078;41.932;25.554;2023-03-24T03:27:06;99778.09;;;7.87;60.50
43488;BME280;29078;41.932;25.554;2023-03-24T03:29:38;99739.34;;;7.63;59.97
43488;BME280;29078;41.932;25.554;2023-03-24T03:32:08;99778.00;;;7.97;60.27
43488;BME280;29078;41.932;25.554;2023-03-24T03:39:54;99806.78;;;7.98;60.33
43488;BME280;29078;41.932;25.554;2023-03-24T03:42:20;99734.34;;;7.52;59.90
43488;BME280;29078;41.932;25.554;2023-03-24T03:44:46;99758.44;;;7.65;59.97
43488;BME280;29078;41.932;25.554;2023-03-24T03:47:12;99756.56;;;7.58;60.25
43488;BME280;29078;41.932;25.554;2023-03-24T03:49:39;99722.44;;;7.22;59.88
43488;BME280;29078;41.932;25.554;2023-03-24T03:52:04;99820.94;;;7.80;60.35
43488;BME280;29078;41.932;25.554;2023-03-24T03:54:30;99755.31;;;7.44;60.22
43488;BME280;29078;41.932;25.554;2023-03-24T03:56:58;99803.69;;;7.77;59.86
43488;BME280;29078;41.932;25.554;2023-03-24T03:59:29;99787.47;;;7.64;60.23
43488;BME280;29078;41.932;25.554;2023-03-24T04:02:00;99735.56;;;7.40;60.71
43488;BME280;29078;41.932;25.554;2023-03-24T04:04:56;99776.66;;;7.67;60.34
43488;BME280;29078;41.932;25.554;2023-03-24T04:07:35;99675.72;;;7.08;60.33
43488;BME280;29078;41.932;25.554;2023-03-24T04:15:45;99752.13;;;7.58;59.75
43488;BME280;29078;41.932;25.554;2023-03-24T04:18:21;99761.81;;;7.58;60.55
43488;BME280;29078;41.932;25.554;2023-03-24T04:26:29;99772.94;;;7.34;60.20
43488;BME280;29078;41.932;25.554;2023-03-24T04:32:00;99762.72;;;7.31;60.34
43488;BME280;29078;41.932;25.554;2023-03-24T04:34:45;99753.19;;;7.30;60.57
43488;BME280;29078;41.932;25.554;2023-03-24T04:37:21;99755.06;;;7.38;60.70
43488;BME280;29078;41.932;25.554;2023-03-24T04:39:50;99707.69;;;7.04;60.51
43488;BME280;29078;41.932;25.554;2023-03-24T04:42:24;99760.41;;;7.46;60.16
43488;BME280;29078;41.932;25.554;2023-03-24T04:44:51;99762.44;;;7.52;60.34
43488;BME280;29078;41.932;25.554;2023-03-24T04:47:23;99772.13;;;7.51;59.90
43488;BME280;29078;41.932;25.554;2023-03-24T04:49:50;99721.63;;;7.22;59.45
43488;BME280;29078;41.932;25.554;2023-03-24T04:52:16;99776.16;;;7.63;59.91
43488;BME280;29078;41.932;25.554;2023-03-24T04:54:41;99778.00;;;7.71;59.84
43488;BME280;29078;41.932;25.554;2023-03-24T04:57:06;99775.38;;;7.71;59.83
43488;BME280;29078;41.932;25.554;2023-03-24T04:59:32;99747.69;;;7.59;59.36
43488;BME280;29078;41.932;25.554;2023-03-24T05:01:59;99766.38;;;7.74;59.55
43488;BME280;29078;41.932;25.554;2023-03-24T05:04:26;99778.69;;;7.73;59.74
43488;BME280;29078;41.932;25.554;2023-03-24T05:06:52;99766.88;;;7.77;59.99
43488;BME280;29078;41.932;25.554;2023-03-24T05:09:20;99772.44;;;7.74;59.98
43488;BME280;29078;41.932;25.554;2023-03-24T05:11:46;99724.31;;;7.48;59.58
43488;BME280;29078;41.932;25.554;2023-03-24T05:14:12;99758.94;;;7.69;59.91
43488;BME280;29078;41.932;25.554;2023-03-24T05:16:37;99773.63;;;7.80;59.95
43488;BME280;29078;41.932;25.554;2023-03-24T05:19:03;99716.59;;;7.46;59.96
43488;BME280;29078;41.932;25.554;2023-03-24T05:21:29;99786.50;;;7.91;60.13
43488;BME280;29078;41.932;25.554;2023-03-24T05:23:54;99745.13;;;7.67;59.83
43488;BME280;29078;41.932;25.554;2023-03-24T05:26:20;99767.44;;;7.89;59.77
43488;BME280;29078;41.932;25.554;2023-03-24T05:28:45;99792.22;;;8.12;59.93
43488;BME280;29078;41.932;25.554;2023-03-24T05:31:11;99739.47;;;7.80;59.49
43488;BME280;29078;41.932;25.554;2023-03-24T05:33:36;99736.00;;;7.79;59.93
43488;BME280;29078;41.932;25.554;2023-03-24T05:36:02;99812.72;;;8.26;59.91
43488;BME280;29078;41.932;25.554;2023-03-24T05:38:27;99761.97;;;8.08;60.00
43488;BME280;29078;41.932;25.554;2023-03-24T05:40:57;99717.59;;;7.79;60.14
43488;BME280;29078;41.932;25.554;2023-03-24T05:43:22;99801.84;;;8.21;60.55
43488;BME280;29078;41.932;25.554;2023-03-24T05:45:48;99696.50;;;7.63;60.72
43488;BME280;29078;41.932;25.554;2023-03-24T05:48:13;99826.66;;;8.45;60.26
43488;BME280;29078;41.932;25.554;2023-03-24T05:50:39;99745.81;;;8.03;60.37
43488;BME280;29078;41.932;25.554;2023-03-24T05:53:04;99700.38;;;7.85;60.69
43488;BME280;29078;41.932;25.554;2023-03-24T05:55:29;99819.31;;;8.65;60.31
43488;BME280;29078;41.932;25.554;2023-03-24T05:57:56;99825.44;;;8.73;60.39
43488;BME280;29078;41.932;25.554;2023-03-24T06:00:21;99820.38;;;8.80;60.10
43488;BME280;29078;41.932;25.554;2023-03-24T06:02:48;99813.44;;;8.79;60.22
43488;BME280;29078;41.932;25.554;2023-03-24T06:05:13;99823.06;;;8.96;60.38
43488;BME280;29078;41.932;25.554;2023-03-24T06:07:39;99788.78;;;8.80;60.63
43488;BME280;29078;41.932;25.554;2023-03-24T06:10:10;99763.56;;;8.69;60.42
43488;BME280;29078;41.932;25.554;2023-03-24T06:12:36;99676.09;;;8.25;60.06
43488;BME280;29078;41.932;25.554;2023-03-24T06:15:01;99733.31;;;8.73;60.10
43488;BME280;29078;41.932;25.554;2023-03-24T06:17:29;99828.59;;;9.43;59.88
43488;BME280;29078;41.932;25.554;2023-03-24T06:19:55;99818.38;;;9.40;60.43
43488;BME280;29078;41.932;25.554;2023-03-24T06:22:27;99802.88;;;9.21;60.43
43488;BME280;29078;41.932;25.554;2023-03-24T06:24:53;99771.91;;;9.23;60.50
43488;BME280;29078;41.932;25.554;2023-03-24T06:27:21;99799.75;;;9.58;60.03
43488;BME280;29078;41.932;25.554;2023-03-24T06:29:49;99774.22;;;9.50;60.39
43488;BME280;29078;41.932;25.554;2023-03-24T06:32:17;99753.47;;;9.39;60.01
43488;BME280;29078;41.932;25.554;2023-03-24T06:34:43;99786.25;;;9.61;60.04
43488;BME280;29078;41.932;25.554;2023-03-24T06:37:09;99840.59;;;10.11;60.68
43488;BME280;29078;41.932;25.554;2023-03-24T06:39:34;99783.78;;;9.76;60.10
43488;BME280;29078;41.932;25.554;2023-03-24T06:42:00;99767.63;;;9.79;60.16
43488;BME280;29078;41.932;25.554;2023-03-24T06:44:25;99806.31;;;10.11;59.85
43488;BME280;29078;41.932;25.554;2023-03-24T06:46:51;99786.38;;;10.08;60.51
43488;BME280;29078;41.932;25.554;2023-03-24T06:49:16;99744.19;;;9.92;59.96
43488;BME280;29078;41.932;25.554;2023-03-24T06:51:42;99843.81;;;10.62;60.38
43488;BME280;29078;41.932;25.554;2023-03-24T06:54:07;99849.72;;;10.72;60.16
43488;BME280;29078;41.932;25.554;2023-03-24T06:56:33;99777.06;;;10.37;60.03
43488;BME280;29078;41.932;25.554;2023-03-24T06:58:59;99840.56;;;10.91;59.58
43488;BME280;29078;41.932;25.554;2023-03-24T07:01:25;99771.91;;;10.52;59.80
43488;BME280;29078;41.932;25.554;2023-03-24T07:03:51;99790.66;;;10.65;59.76
43488;BME280;29078;41.932;25.554;2023-03-24T07:06:17;99838.28;;;11.19;59.64
43488;BME280;29078;41.932;25.554;2023-03-24T07:08:43;99778.03;;;10.83;59.73
43488;BME280;29078;41.932;25.554;2023-03-24T07:11:09;99843.63;;;11.33;60.15
43488;BME280;29078;41.932;25.554;2023-03-24T07:13:35;99817.25;;;11.25;59.42
43488;BME280;29078;41.932;25.554;2023-03-24T07:16:01;99718.16;;;10.75;59.74
43488;BME280;29078;41.932;25.554;2023-03-24T07:18:27;99840.63;;;11.59;59.31
43488;BME280;29078;41.932;25.554;2023-03-24T07:20:52;99795.53;;;11.38;59.47
43488;BME280;29078;41.932;25.554;2023-03-24T07:23:18;99765.50;;;11.31;58.66
43488;BME280;29078;41.932;25.554;2023-03-24T07:25:44;99845.63;;;11.77;59.16
43488;BME280;29078;41.932;25.554;2023-03-24T07:28:10;99812.09;;;11.77;58.92
43488;BME280;29078;41.932;25.554;2023-03-24T07:30:35;99843.81;;;12.00;58.29
43488;BME280;29078;41.932;25.554;2023-03-24T07:33:02;99814.78;;;11.92;58.77
43488;BME280;29078;41.932;25.554;2023-03-24T07:35:29;99768.34;;;11.67;58.36
43488;BME280;29078;41.932;25.554;2023-03-24T07:37:58;99797.19;;;11.99;58.11
43488;BME280;29078;41.932;25.554;2023-03-24T07:40:24;99767.66;;;11.88;58.16
43488;BME280;29078;41.932;25.554;2023-03-24T07:42:49;99862.84;;;12.33;58.12
43488;BME280;29078;41.932;25.554;2023-03-24T07:45:15;99830.72;;;12.36;58.06
43488;BME280;29078;41.932;25.554;2023-03-24T07:47:43;99763.59;;;12.00;58.09
43488;BME280;29078;41.932;25.554;2023-03-24T07:50:10;99831.06;;;12.48;57.67
43488;BME280;29078;41.932;25.554;2023-03-24T07:52:40;99832.72;;;12.49;57.66
43488;BME280;29078;41.932;25.554;2023-03-24T07:55:08;99818.00;;;12.47;57.66
43488;BME280;29078;41.932;25.554;2023-03-24T07:57:36;99828.59;;;12.61;57.57
43488;BME280;29078;41.932;25.554;2023-03-24T08:00:06;99820.94;;;12.66;57.37
43488;BME280;29078;41.932;25.554;2023-03-24T08:02:51;99810.44;;;12.73;57.77
43488;BME280;29078;41.932;25.554;2023-03-24T08:05:19;99810.50;;;12.80;57.48
43488;BME280;29078;41.932;25.554;2023-03-24T08:07:49;99715.94;;;12.29;57.25
43488;BME280;29078;41.932;25.554;2023-03-24T08:10:20;99809.72;;;13.00;57.31
43488;BME280;29078;41.932;25.554;2023-03-24T08:12:47;99741.47;;;12.66;57.14
43488;BME280;29078;41.932;25.554;2023-03-24T08:15:12;99791.44;;;13.05;56.95
43488;BME280;29078;41.932;25.554;2023-03-24T08:17:39;99767.75;;;13.04;57.24
43488;BME280;29078;41.932;25.554;2023-03-24T08:20:06;99778.78;;;13.22;57.14
43488;BME280;29078;41.932;25.554;2023-03-24T08:22:32;99744.91;;;13.03;57.05
43488;BME280;29078;41.932;25.554;2023-03-24T08:24:58;99719.03;;;13.05;57.32
43488;BME280;29078;41.932;25.554;2023-03-24T08:27:23;99653.44;;;12.64;56.81
43488;BME280;29078;41.932;25.554;2023-03-24T08:29:48;99680.69;;;13.01;56.58
43488;BME280;29078;41.932;25.554;2023-03-24T08:32:14;99741.53;;;13.52;56.76
43488;BME280;29078;41.932;25.554;2023-03-24T08:34:39;99731.38;;;13.55;56.14
43488;BME280;29078;41.932;25.554;2023-03-24T08:37:05;99713.06;;;13.39;56.33
43488;BME280;29078;41.932;25.554;2023-03-24T08:39:30;99701.56;;;13.53;56.20
43488;BME280;29078;41.932;25.554;2023-03-24T08:42:00;99784.88;;;14.15;55.83
43488;BME280;29078;41.932;25.554;2023-03-24T08:44:25;99739.41;;;13.96;55.29
43488;BME280;29078;41.932;25.554;2023-03-24T08:46:51;99771.13;;;14.39;55.06
43488;BME280;29078;41.932;25.554;2023-03-24T08:49:16;99756.88;;;14.47;54.68
43488;BME280;29078;41.932;25.554;2023-03-24T08:51:42;99745.66;;;14.51;54.16
43488;BME280;29078;41.932;25.554;2023-03-24T08:54:08;99681.53;;;14.20;53.77
43488;BME280;29078;41.932;25.554;2023-03-24T08:56:37;99763.59;;;14.90;53.61
43488;BME280;29078;41.932;25.554;2023-03-24T08:59:02;99763.63;;;15.10;53.17
43488;BME280;29078;41.932;25.554;2023-03-24T09:01:29;99700.97;;;14.75;52.78
43488;BME280;29078;41.932;25.554;2023-03-24T09:03:55;99709.63;;;15.03;52.37
43488;BME280;29078;41.932;25.554;2023-03-24T09:06:21;99730.09;;;15.29;51.40
43488;BME280;29078;41.932;25.554;2023-03-24T09:08:47;99682.84;;;15.18;51.63
43488;BME280;29078;41.932;25.554;2023-03-24T09:11:17;99720.91;;;15.38;51.26
43488;BME280;29078;41.932;25.554;2023-03-24T09:13:44;99752.66;;;15.79;50.83
43488;BME280;29078;41.932;25.554;2023-03-24T09:16:13;99751.00;;;15.98;50.72
43488;BME280;29078;41.932;25.554;2023-03-24T09:18:39;99722.53;;;15.99;50.21
43488;BME280;29078;41.932;25.554;2023-03-24T09:21:05;99715.94;;;16.08;49.74
43488;BME280;29078;41.932;25.554;2023-03-24T09:23:31;99725.50;;;16.35;49.07
43488;BME280;29078;41.932;25.554;2023-03-24T09:25:57;99745.69;;;16.63;48.77
43488;BME280;29078;41.932;25.554;2023-03-24T09:28:23;99755.25;;;16.83;48.32
43488;BME280;29078;41.932;25.554;2023-03-24T09:30:49;99700.38;;;16.69;47.90
43488;BME280;29078;41.932;25.554;2023-03-24T09:33:15;99734.66;;;16.97;47.53
43488;BME280;29078;41.932;25.554;2023-03-24T09:35:40;99737.63;;;17.21;47.06
43488;BME280;29078;41.932;25.554;2023-03-24T09:38:06;99701.56;;;17.05;46.79
43488;BME280;29078;41.932;25.554;2023-03-24T09:40:35;99735.59;;;17.41;46.08
43488;BME280;29078;41.932;25.554;2023-03-24T09:43:19;99717.34;;;17.38;45.65
43488;BME280;29078;41.932;25.554;2023-03-24T09:45:50;99667.63;;;17.19;45.40
43488;BME280;29078;41.932;25.554;2023-03-24T09:48:39;99725.63;;;17.79;45.05
43488;BME280;29078;41.932;25.554;2023-03-24T09:51:14;99715.00;;;17.98;44.67
43488;BME280;29078;41.932;25.554;2023-03-24T09:53:48;99725.31;;;18.13;44.14
43488;BME280;29078;41.932;25.554;2023-03-24T09:56:18;99711.06;;;18.19;43.82
43488;BME280;29078;41.932;25.554;2023-03-24T09:58:59;99687.47;;;17.97;43.51
43488;BME280;29078;41.932;25.554;2023-03-24T10:01:26;99678.19;;;18.18;42.99
43488;BME280;29078;41.932;25.554;2023-03-24T10:03:56;99718.34;;;18.66;42.83
43488;BME280;29078;41.932;25.554;2023-03-24T10:06:25;99644.59;;;18.40;42.51
43488;BME280;29078;41.932;25.554;2023-03-24T10:23:43;99697.88;;;19.67;40.41
43488;BME280;29078;41.932;25.554;2023-03-24T10:29:20;99691.34;;;19.86;39.69
43488;BME280;29078;41.932;25.554;2023-03-24T10:31:50;99628.25;;;19.67;39.49
43488;BME280;29078;41.932;25.554;2023-03-24T10:34:16;99657.78;;;19.95;39.03
43488;BME280;29078;41.932;25.554;2023-03-24T10:36:43;99652.41;;;20.07;38.68
43488;BME280;29078;41.932;25.554;2023-03-24T10:39:15;99622.38;;;19.93;38.51
43488;BME280;29078;41.932;25.554;2023-03-24T10:41:42;99655.91;;;20.48;37.94
43488;BME280;29078;41.932;25.554;2023-03-24T10:44:08;99602.75;;;20.16;37.65
43488;BME280;29078;41.932;25.554;2023-03-24T10:46:42;99662.97;;;20.66;37.41
43488;BME280;29078;41.932;25.554;2023-03-24T10:49:15;99667.31;;;20.83;37.04
43488;BME280;29078;41.932;25.554;2023-03-24T10:51:47;99679.38;;;20.98;36.57
43488;BME280;29078;41.932;25.554;2023-03-24T10:54:22;99622.00;;;20.70;36.41
43488;BME280;29078;41.932;25.554;2023-03-24T10:59:36;99671.38;;;21.31;35.35
43488;BME280;29078;41.932;25.554;2023-03-24T11:02:16;99659.16;;;21.40;35.23
43488;BME280;29078;41.932;25.554;2023-03-24T11:04:47;99601.38;;;21.04;34.86
43488;BME280;29078;41.932;25.554;2023-03-24T11:07:19;99640.50;;;21.34;34.38
43488;BME280;29078;41.932;25.554;2023-03-24T11:12:29;99639.94;;;21.65;34.15
43488;BME280;29078;41.932;25.554;2023-03-24T11:15:14;99647.91;;;21.60;33.04
43488;BME280;29078;41.932;25.554;2023-03-24T11:17:42;99624.25;;;21.23;32.98
43488;BME280;29078;41.932;25.554;2023-03-24T11:20:18;99623.97;;;21.42;33.02
43488;BME280;29078;41.932;25.554;2023-03-24T11:25:35;99561.22;;;21.48;32.93
43488;BME280;29078;41.932;25.554;2023-03-24T11:28:06;99617.66;;;22.08;32.68
43488;BME280;29078;41.932;25.554;2023-03-24T11:30:46;99618.22;;;22.10;33.43
43488;BME280;29078;41.932;25.554;2023-03-24T11:33:32;99598.00;;;22.08;33.13
43488;BME280;29078;41.932;25.554;2023-03-24T11:42:00;99555.59;;;22.37;32.83
43488;BME280;29078;41.932;25.554;2023-03-24T11:49:48;99501.41;;;22.28;32.37
43488;BME280;29078;41.932;25.554;2023-03-24T11:52:27;99523.94;;;22.22;32.33
43488;BME280;29078;41.932;25.554;2023-03-24T11:54:54;99538.19;;;22.23;32.27
43488;BME280;29078;41.932;25.554;2023-03-24T12:00:21;99573.63;;;22.14;32.09
43488;BME280;29078;41.932;25.554;2023-03-24T12:03:20;99555.25;;;22.06;31.72
43488;BME280;29078;41.932;25.554;2023-03-24T12:05:57;99493.13;;;21.81;32.42
43488;BME280;29078;41.932;25.554;2023-03-24T12:08:47;99503.25;;;21.74;31.56
43488;BME280;29078;41.932;25.554;2023-03-24T12:13:59;99538.66;;;21.93;31.99
43488;BME280;29078;41.932;25.554;2023-03-24T12:17:05;99537.78;;;21.87;31.26
43488;BME280;29078;41.932;25.554;2023-03-24T12:19:56;99432.94;;;21.16;31.44
43488;BME280;29078;41.932;25.554;2023-03-24T12:22:41;99521.69;;;21.65;31.42
43488;BME280;29078;41.932;25.554;2023-03-24T12:55:14;99487.91;;;20.92;32.06
43488;BME280;29078;41.932;25.554;2023-03-24T12:57:56;99411.28;;;20.46;32.17
43488;BME280;29078;41.932;25.554;2023-03-24T13:03:27;99442.63;;;20.79;32.04
43488;BME280;29078;41.932;25.554;2023-03-24T13:05:57;99432.22;;;20.66;31.97
43488;BME280;29078;41.932;25.554;2023-03-24T13:08:24;99478.28;;;21.13;32.11
43488;BME280;29078;41.932;25.554;2023-03-24T13:11:00;99413.91;;;20.79;31.92
43488;BME280;29078;41.932;25.554;2023-03-24T13:13:33;99472.81;;;21.24;32.06
43488;BME280;29078;41.932;25.554;2023-03-24T13:16:05;99446.31;;;21.11;32.19
43488;BME280;29078;41.932;25.554;2023-03-24T13:18:38;99474.00;;;21.34;32.30
43488;BME280;29078;41.932;25.554;2023-03-24T13:31:51;99452.50;;;21.77;29.93
43488;BME280;29078;41.932;25.554;2023-03-24T13:34:26;99461.66;;;21.81;30.88
43488;BME280;29078;41.932;25.554;2023-03-24T13:37:04;99461.13;;;21.79;30.73
43488;BME280;29078;41.932;25.554;2023-03-24T13:39:33;99459.28;;;21.85;30.55
43488;BME280;29078;41.932;25.554;2023-03-24T13:41:59;99461.31;;;22.00;30.59
43488;BME280;29078;41.932;25.554;2023-03-24T13:44:38;99375.53;;;21.66;29.97
43488;BME280;29078;41.932;25.554;2023-03-24T13:47:10;99448.19;;;22.30;30.27
43488;BME280;29078;41.932;25.554;2023-03-24T13:49:38;99431.84;;;22.37;29.94
43488;BME280;29078;41.932;25.554;2023-03-24T13:52:06;99415.50;;;22.48;29.72
43488;BME280;29078;41.932;25.554;2023-03-24T13:54:46;99390.16;;;22.39;29.48
43488;BME280;29078;41.932;25.554;2023-03-24T13:57:19;99395.91;;;22.58;28.85
43488;BME280;29078;41.932;25.554;2023-03-24T14:00:23;99401.13;;;22.75;29.25
43488;BME280;29078;41.932;25.554;2023-03-24T14:02:55;99356.28;;;22.43;29.36
43488;BME280;29078;41.932;25.554;2023-03-24T14:08:14;99424.50;;;23.06;28.55
43488;BME280;29078;41.932;25.554;2023-03-24T14:18:37;99428.34;;;23.21;29.35
43488;BME280;29078;41.932;25.554;2023-03-24T14:21:03;99422.13;;;23.15;29.44
43488;BME280;29078;41.932;25.554;2023-03-24T14:26:06;99408.66;;;23.15;29.66
43488;BME280;29078;41.932;25.554;2023-03-24T14:28:43;99401.34;;;23.05;29.61
43488;BME280;29078;41.932;25.554;2023-03-24T14:33:44;99400.53;;;23.05;29.79
43488;BME280;29078;41.932;25.554;2023-03-24T14:36:40;99318.38;;;22.50;29.86
43488;BME280;29078;41.932;25.554;2023-03-24T14:41:53;99330.69;;;22.36;30.48
43488;BME280;29078;41.932;25.554;2023-03-24T14:47:37;99307.34;;;22.09;30.63
43488;BME280;29078;41.932;25.554;2023-03-24T14:50:18;99391.81;;;22.45;30.07
43488;BME280;29078;41.932;25.554;2023-03-24T14:53:03;99299.00;;;21.74;29.93
43488;BME280;29078;41.932;25.554;2023-03-24T14:55:29;99374.66;;;22.19;30.44
43488;BME280;29078;41.932;25.554;2023-03-24T14:58:13;99344.25;;;21.87;30.59
43488;BME280;29078;41.932;25.554;2023-03-24T15:00:46;99383.97;;;22.07;30.81
43488;BME280;29078;41.932;25.554;2023-03-24T15:06:18;99380.38;;;21.69;30.70
43488;BME280;29078;41.932;25.554;2023-03-24T15:08:52;99360.81;;;21.47;30.91
43488;BME280;29078;41.932;25.554;2023-03-24T15:11:25;99317.06;;;21.03;31.07
43488;BME280;29078;41.932;25.554;2023-03-24T15:13:53;99369.25;;;21.34;31.39
43488;BME280;29078;41.932;25.554;2023-03-24T15:16:24;99285.44;;;20.61;32.19
43488;BME280;29078;41.932;25.554;2023-03-24T15:18:53;99277.50;;;20.49;32.58
43488;BME280;29078;41.932;25.554;2023-03-24T15:21:34;99362.66;;;20.98;32.80
43488;BME280;29078;41.932;25.554;2023-03-24T15:24:00;99367.31;;;20.85;33.16
43488;BME280;29078;41.932;25.554;2023-03-24T15:26:28;99298.47;;;20.36;33.82
43488;BME280;29078;41.932;25.554;2023-03-24T15:29:04;99298.34;;;20.25;33.55
43488;BME280;29078;41.932;25.554;2023-03-24T15:31:30;99332.69;;;20.45;33.70
43488;BME280;29078;41.932;25.554;2023-03-24T15:34:03;99357.28;;;20.59;33.96
43488;BME280;29078;41.932;25.554;2023-03-24T15:36:33;99368.44;;;20.51;33.84
43488;BME280;29078;41.932;25.554;2023-03-24T15:38:59;99313.16;;;20.11;33.74
43488;BME280;29078;41.932;25.554;2023-03-24T15:41:24;99327.44;;;20.17;33.81
43488;BME280;29078;41.932;25.554;2023-03-24T15:43:51;99356.19;;;20.21;34.24
43488;BME280;29078;41.932;25.554;2023-03-24T15:46:28;99359.94;;;20.20;34.15
43488;BME280;29078;41.932;25.554;2023-03-24T15:48:56;99229.31;;;19.32;34.51
43488;BME280;29078;41.932;25.554;2023-03-24T15:51:44;99355.78;;;20.13;34.75